Parade, South Dakota
Current Conditions -  °F | °C
As of 12:52 AM on Sunday 26 Oct 2014 (Local Time) from KMBG Reporting Station
Clear Clear  
Wind Chill: 51°   Ceiling: Unl
Heat Index: 51°   Visibility: 10mi
Dew Point: 31°   Wind: 17mph
Humidity: 46%   Direction: 140°SE
Pressure: 29.84"   Gusts: NA
Location:  45.14°N, 100.67°W
Report Text: KMBG 260652Z AUTO 14015KT 10SM CLR 11/M01 A2984 RMK AO2 SLP103 T01061006
Loading
Personal Weather Stations






























Interactive Weather Map
Tropical Storm Tracking
New forecast layout! Learn more

10-Day Weather Forecast

Advertisements
Track Severe Weather on mobile